sensor_id;sensor_type;location;lat;lon;timestamp;P1;durP1;ratioP1;P2;durP2;ratioP2
74503;SDS011;62988;55.776;37.544;2023-05-17T00:02:03;7.82;;;2.10;;
74503;SDS011;62988;55.776;37.544;2023-05-17T00:04:29;7.63;;;2.00;;
74503;SDS011;62988;55.776;37.544;2023-05-17T00:06:54;6.95;;;2.00;;
74503;SDS011;62988;55.776;37.544;2023-05-17T00:09:19;5.40;;;2.50;;
74503;SDS011;62988;55.776;37.544;2023-05-17T00:11:45;9.57;;;2.50;;
74503;SDS011;62988;55.776;37.544;2023-05-17T00:14:10;8.90;;;2.20;;
74503;SDS011;62988;55.776;37.544;2023-05-17T00:16:36;7.00;;;2.40;;
74503;SDS011;62988;55.776;37.544;2023-05-17T00:19:01;9.77;;;2.17;;
74503;SDS011;62988;55.776;37.544;2023-05-17T00:21:26;5.20;;;2.40;;
74503;SDS011;62988;55.776;37.544;2023-05-17T00:23:52;9.43;;;2.80;;
74503;SDS011;62988;55.776;37.544;2023-05-17T00:26:17;7.17;;;2.37;;
74503;SDS011;62988;55.776;37.544;2023-05-17T00:28:43;9.57;;;2.50;;
74503;SDS011;62988;55.776;37.544;2023-05-17T00:31:08;11.73;;;2.47;;
74503;SDS011;62988;55.776;37.544;2023-05-17T00:33:33;9.47;;;2.40;;
74503;SDS011;62988;55.776;37.544;2023-05-17T00:35:59;7.10;;;2.33;;
74503;SDS011;62988;55.776;37.544;2023-05-17T00:38:24;8.73;;;2.70;;
74503;SDS011;62988;55.776;37.544;2023-05-17T00:40:49;8.52;;;2.53;;
74503;SDS011;62988;55.776;37.544;2023-05-17T00:43:15;8.50;;;2.78;;
74503;SDS011;62988;55.776;37.544;2023-05-17T00:45:40;10.05;;;2.65;;
74503;SDS011;62988;55.776;37.544;2023-05-17T00:48:06;8.43;;;2.45;;
74503;SDS011;62988;55.776;37.544;2023-05-17T00:50:31;12.13;;;2.75;;
74503;SDS011;62988;55.776;37.544;2023-05-17T00:52:56;7.20;;;2.38;;
74503;SDS011;62988;55.776;37.544;2023-05-17T00:55:22;8.85;;;2.90;;
74503;SDS011;62988;55.776;37.544;2023-05-17T00:57:47;11.93;;;2.83;;
74503;SDS011;62988;55.776;37.544;2023-05-17T01:00:14;7.53;;;2.30;;
74503;SDS011;62988;55.776;37.544;2023-05-17T01:02:39;5.90;;;2.38;;
74503;SDS011;62988;55.776;37.544;2023-05-17T01:05:04;8.40;;;2.50;;
74503;SDS011;62988;55.776;37.544;2023-05-17T01:07:30;6.95;;;2.50;;
74503;SDS011;62988;55.776;37.544;2023-05-17T01:09:56;8.07;;;3.05;;
74503;SDS011;62988;55.776;37.544;2023-05-17T01:15:10;10.18;;;2.42;;
74503;SDS011;62988;55.776;37.544;2023-05-17T01:17:39;7.95;;;2.70;;
74503;SDS011;62988;55.776;37.544;2023-05-17T01:20:47;9.15;;;2.70;;
74503;SDS011;62988;55.776;37.544;2023-05-17T01:23:58;9.80;;;2.70;;
74503;SDS011;62988;55.776;37.544;2023-05-17T01:28:48;9.38;;;2.40;;
74503;SDS011;62988;55.776;37.544;2023-05-17T01:31:16;12.52;;;3.70;;
74503;SDS011;62988;55.776;37.544;2023-05-17T01:33:42;12.55;;;3.08;;
74503;SDS011;62988;55.776;37.544;2023-05-17T01:36:07;12.38;;;3.03;;
74503;SDS011;62988;55.776;37.544;2023-05-17T01:38:33;8.30;;;2.75;;
74503;SDS011;62988;55.776;37.544;2023-05-17T01:41:06;12.27;;;2.90;;
74503;SDS011;62988;55.776;37.544;2023-05-17T01:43:49;12.07;;;4.43;;
74503;SDS011;62988;55.776;37.544;2023-05-17T01:46:32;15.88;;;3.42;;
74503;SDS011;62988;55.776;37.544;2023-05-17T01:49:05;9.70;;;2.53;;
74503;SDS011;62988;55.776;37.544;2023-05-17T01:51:34;13.05;;;3.45;;
74503;SDS011;62988;55.776;37.544;2023-05-17T01:54:01;9.50;;;2.70;;
74503;SDS011;62988;55.776;37.544;2023-05-17T01:56:33;14.55;;;3.45;;
74503;SDS011;62988;55.776;37.544;2023-05-17T01:58:58;10.05;;;2.70;;
74503;SDS011;62988;55.776;37.544;2023-05-17T02:01:26;8.50;;;2.53;;
74503;SDS011;62988;55.776;37.544;2023-05-17T02:03:53;6.78;;;2.33;;
74503;SDS011;62988;55.776;37.544;2023-05-17T02:06:18;9.95;;;2.95;;
74503;SDS011;62988;55.776;37.544;2023-05-17T02:08:43;9.07;;;2.90;;
74503;SDS011;62988;55.776;37.544;2023-05-17T02:11:09;8.68;;;3.13;;
74503;SDS011;62988;55.776;37.544;2023-05-17T02:13:34;10.32;;;2.97;;
74503;SDS011;62988;55.776;37.544;2023-05-17T02:16:02;8.57;;;2.60;;
74503;SDS011;62988;55.776;37.544;2023-05-17T02:18:28;13.68;;;3.15;;
74503;SDS011;62988;55.776;37.544;2023-05-17T02:20:54;8.77;;;2.92;;
74503;SDS011;62988;55.776;37.544;2023-05-17T02:23:19;6.67;;;2.40;;
74503;SDS011;62988;55.776;37.544;2023-05-17T02:25:45;9.23;;;2.50;;
74503;SDS011;62988;55.776;37.544;2023-05-17T02:28:10;7.90;;;2.50;;
74503;SDS011;62988;55.776;37.544;2023-05-17T02:30:36;8.07;;;2.60;;
74503;SDS011;62988;55.776;37.544;2023-05-17T02:33:04;8.20;;;2.75;;
74503;SDS011;62988;55.776;37.544;2023-05-17T02:35:30;7.05;;;2.50;;
74503;SDS011;62988;55.776;37.544;2023-05-17T02:37:55;5.23;;;2.60;;
74503;SDS011;62988;55.776;37.544;2023-05-17T02:40:20;9.65;;;2.53;;
74503;SDS011;62988;55.776;37.544;2023-05-17T02:42:46;17.90;;;3.70;;
74503;SDS011;62988;55.776;37.544;2023-05-17T02:45:11;9.10;;;2.90;;
74503;SDS011;62988;55.776;37.544;2023-05-17T02:47:37;9.70;;;2.72;;
74503;SDS011;62988;55.776;37.544;2023-05-17T02:50:02;4.57;;;2.43;;
74503;SDS011;62988;55.776;37.544;2023-05-17T02:52:27;8.82;;;3.10;;
74503;SDS011;62988;55.776;37.544;2023-05-17T02:54:53;11.80;;;2.50;;
74503;SDS011;62988;55.776;37.544;2023-05-17T02:57:18;6.73;;;2.50;;
74503;SDS011;62988;55.776;37.544;2023-05-17T02:59:43;9.75;;;2.95;;
74503;SDS011;62988;55.776;37.544;2023-05-17T03:02:09;6.40;;;2.90;;
74503;SDS011;62988;55.776;37.544;2023-05-17T08:23:12;6.82;;;1.98;;
74503;SDS011;62988;55.776;37.544;2023-05-17T08:25:37;9.33;;;2.17;;
74503;SDS011;62988;55.776;37.544;2023-05-17T08:28:03;6.47;;;1.70;;
74503;SDS011;62988;55.776;37.544;2023-05-17T08:30:28;10.48;;;2.40;;
74503;SDS011;62988;55.776;37.544;2023-05-17T08:32:53;8.45;;;2.38;;
74503;SDS011;62988;55.776;37.544;2023-05-17T08:35:20;7.28;;;2.47;;
74503;SDS011;62988;55.776;37.544;2023-05-17T08:37:45;5.55;;;2.50;;
74503;SDS011;62988;55.776;37.544;2023-05-17T08:40:11;9.57;;;2.00;;
74503;SDS011;62988;55.776;37.544;2023-05-17T08:42:36;3.45;;;1.67;;
74503;SDS011;62988;55.776;37.544;2023-05-17T08:45:02;5.47;;;1.77;;
74503;SDS011;62988;55.776;37.544;2023-05-17T08:47:28;12.73;;;2.17;;
74503;SDS011;62988;55.776;37.544;2023-05-17T08:49:56;4.47;;;2.72;;
74503;SDS011;62988;55.776;37.544;2023-05-17T08:52:25;7.05;;;2.05;;
74503;SDS011;62988;55.776;37.544;2023-05-17T08:54:51;4.32;;;2.17;;
74503;SDS011;62988;55.776;37.544;2023-05-17T08:57:16;5.82;;;2.10;;
74503;SDS011;62988;55.776;37.544;2023-05-17T08:59:43;10.23;;;2.40;;
74503;SDS011;62988;55.776;37.544;2023-05-17T09:02:08;7.53;;;2.33;;
74503;SDS011;62988;55.776;37.544;2023-05-17T09:04:34;5.57;;;1.88;;
74503;SDS011;62988;55.776;37.544;2023-05-17T09:06:59;5.10;;;2.00;;
74503;SDS011;62988;55.776;37.544;2023-05-17T09:09:24;7.00;;;1.90;;
74503;SDS011;62988;55.776;37.544;2023-05-17T09:11:50;8.65;;;2.20;;
74503;SDS011;62988;55.776;37.544;2023-05-17T09:14:16;3.95;;;1.98;;
74503;SDS011;62988;55.776;37.544;2023-05-17T09:16:41;4.40;;;1.60;;
74503;SDS011;62988;55.776;37.544;2023-05-17T09:19:08;3.78;;;1.83;;
74503;SDS011;62988;55.776;37.544;2023-05-17T09:21:38;3.78;;;1.77;;
74503;SDS011;62988;55.776;37.544;2023-05-17T09:24:03;8.87;;;2.60;;
74503;SDS011;62988;55.776;37.544;2023-05-17T09:29:06;6.90;;;1.90;;
74503;SDS011;62988;55.776;37.544;2023-05-17T09:31:32;7.10;;;2.30;;
74503;SDS011;62988;55.776;37.544;2023-05-17T09:33:58;7.32;;;1.90;;
74503;SDS011;62988;55.776;37.544;2023-05-17T09:36:23;6.10;;;2.45;;
74503;SDS011;62988;55.776;37.544;2023-05-17T09:38:55;6.67;;;2.20;;
74503;SDS011;62988;55.776;37.544;2023-05-17T09:41:25;4.22;;;1.92;;
74503;SDS011;62988;55.776;37.544;2023-05-17T09:43:50;8.82;;;2.30;;
74503;SDS011;62988;55.776;37.544;2023-05-17T09:46:16;8.93;;;2.30;;
74503;SDS011;62988;55.776;37.544;2023-05-17T09:48:43;19.90;;;3.38;;
74503;SDS011;62988;55.776;37.544;2023-05-17T09:51:10;10.55;;;2.30;;
74503;SDS011;62988;55.776;37.544;2023-05-17T09:53:36;6.80;;;2.05;;
74503;SDS011;62988;55.776;37.544;2023-05-17T09:56:04;8.05;;;2.00;;
74503;SDS011;62988;55.776;37.544;2023-05-17T09:58:32;5.38;;;2.15;;
74503;SDS011;62988;55.776;37.544;2023-05-17T10:00:59;4.40;;;2.10;;
74503;SDS011;62988;55.776;37.544;2023-05-17T10:03:25;6.20;;;1.70;;
74503;SDS011;62988;55.776;37.544;2023-05-17T10:05:54;14.95;;;2.00;;
74503;SDS011;62988;55.776;37.544;2023-05-17T10:08:22;10.30;;;2.03;;
74503;SDS011;62988;55.776;37.544;2023-05-17T10:10:50;7.03;;;1.77;;
74503;SDS011;62988;55.776;37.544;2023-05-17T10:13:17;12.10;;;2.00;;
74503;SDS011;62988;55.776;37.544;2023-05-17T10:15:46;4.38;;;1.98;;
74503;SDS011;62988;55.776;37.544;2023-05-17T10:18:13;5.53;;;2.00;;
74503;SDS011;62988;55.776;37.544;2023-05-17T10:20:39;7.90;;;2.30;;
74503;SDS011;62988;55.776;37.544;2023-05-17T10:23:04;6.57;;;1.88;;
74503;SDS011;62988;55.776;37.544;2023-05-17T10:25:31;8.73;;;2.15;;
74503;SDS011;62988;55.776;37.544;2023-05-17T10:27:56;5.10;;;2.03;;
74503;SDS011;62988;55.776;37.544;2023-05-17T10:30:22;3.03;;;2.05;;
74503;SDS011;62988;55.776;37.544;2023-05-17T10:32:49;7.72;;;2.25;;
74503;SDS011;62988;55.776;37.544;2023-05-17T10:35:15;4.63;;;2.10;;
74503;SDS011;62988;55.776;37.544;2023-05-17T10:37:42;9.30;;;2.20;;
74503;SDS011;62988;55.776;37.544;2023-05-17T10:40:07;6.90;;;2.23;;
74503;SDS011;62988;55.776;37.544;2023-05-17T10:42:38;3.97;;;1.90;;
74503;SDS011;62988;55.776;37.544;2023-05-17T10:45:05;6.35;;;2.20;;
74503;SDS011;62988;55.776;37.544;2023-05-17T10:47:31;5.82;;;2.10;;
74503;SDS011;62988;55.776;37.544;2023-05-17T10:49:57;11.23;;;2.20;;
74503;SDS011;62988;55.776;37.544;2023-05-17T10:52:22;5.55;;;1.88;;
74503;SDS011;62988;55.776;37.544;2023-05-17T10:54:49;4.45;;;2.03;;
74503;SDS011;62988;55.776;37.544;2023-05-17T10:57:18;3.67;;;1.85;;
74503;SDS011;62988;55.776;37.544;2023-05-17T10:59:57;6.47;;;1.90;;
74503;SDS011;62988;55.776;37.544;2023-05-17T11:02:23;10.75;;;2.45;;
74503;SDS011;62988;55.776;37.544;2023-05-17T11:04:49;4.78;;;2.00;;
74503;SDS011;62988;55.776;37.544;2023-05-17T11:07:23;7.05;;;1.67;;
74503;SDS011;62988;55.776;37.544;2023-05-17T11:09:51;4.32;;;2.05;;
74503;SDS011;62988;55.776;37.544;2023-05-17T11:12:37;5.63;;;1.75;;
74503;SDS011;62988;55.776;37.544;2023-05-17T11:15:15;9.27;;;2.40;;
74503;SDS011;62988;55.776;37.544;2023-05-17T11:22:55;8.68;;;1.85;;
74503;SDS011;62988;55.776;37.544;2023-05-17T11:25:22;10.00;;;2.10;;
74503;SDS011;62988;55.776;37.544;2023-05-17T11:27:49;8.95;;;2.45;;
74503;SDS011;62988;55.776;37.544;2023-05-17T11:30:20;7.05;;;1.88;;
74503;SDS011;62988;55.776;37.544;2023-05-17T11:32:50;4.55;;;2.28;;
74503;SDS011;62988;55.776;37.544;2023-05-17T11:35:16;5.63;;;2.08;;
74503;SDS011;62988;55.776;37.544;2023-05-17T11:37:42;3.63;;;2.28;;
74503;SDS011;62988;55.776;37.544;2023-05-17T11:40:08;5.28;;;2.15;;
74503;SDS011;62988;55.776;37.544;2023-05-17T11:42:36;7.10;;;2.00;;
74503;SDS011;62988;55.776;37.544;2023-05-17T11:45:02;8.95;;;2.22;;
74503;SDS011;62988;55.776;37.544;2023-05-17T11:47:27;4.18;;;2.00;;
74503;SDS011;62988;55.776;37.544;2023-05-17T11:49:53;9.75;;;1.80;;
74503;SDS011;62988;55.776;37.544;2023-05-17T11:52:19;6.55;;;1.70;;
74503;SDS011;62988;55.776;37.544;2023-05-17T11:54:45;5.30;;;1.70;;
74503;SDS011;62988;55.776;37.544;2023-05-17T11:57:11;10.13;;;1.95;;
74503;SDS011;62988;55.776;37.544;2023-05-17T11:59:40;8.05;;;1.80;;
74503;SDS011;62988;55.776;37.544;2023-05-17T12:02:07;4.50;;;1.63;;
74503;SDS011;62988;55.776;37.544;2023-05-17T12:04:36;4.50;;;2.05;;
74503;SDS011;62988;55.776;37.544;2023-05-17T12:07:02;3.65;;;1.60;;
74503;SDS011;62988;55.776;37.544;2023-05-17T12:09:28;4.55;;;1.80;;
74503;SDS011;62988;55.776;37.544;2023-05-17T12:11:53;4.95;;;2.30;;
74503;SDS011;62988;55.776;37.544;2023-05-17T12:14:19;5.70;;;1.80;;
74503;SDS011;62988;55.776;37.544;2023-05-17T12:16:46;7.57;;;2.42;;
74503;SDS011;62988;55.776;37.544;2023-05-17T12:19:16;13.35;;;2.42;;
74503;SDS011;62988;55.776;37.544;2023-05-17T12:21:42;9.75;;;2.20;;
74503;SDS011;62988;55.776;37.544;2023-05-17T12:24:08;3.97;;;1.60;;
74503;SDS011;62988;55.776;37.544;2023-05-17T12:26:33;7.00;;;2.33;;
74503;SDS011;62988;55.776;37.544;2023-05-17T12:28:59;15.95;;;2.45;;
74503;SDS011;62988;55.776;37.544;2023-05-17T12:33:50;11.77;;;2.27;;
74503;SDS011;62988;55.776;37.544;2023-05-17T12:36:15;7.93;;;2.25;;
74503;SDS011;62988;55.776;37.544;2023-05-17T12:38:42;8.07;;;1.80;;
74503;SDS011;62988;55.776;37.544;2023-05-17T12:41:08;5.47;;;1.52;;
74503;SDS011;62988;55.776;37.544;2023-05-17T12:43:36;5.10;;;1.80;;
74503;SDS011;62988;55.776;37.544;2023-05-17T12:46:05;10.57;;;2.25;;
74503;SDS011;62988;55.776;37.544;2023-05-17T12:48:32;6.90;;;1.83;;
74503;SDS011;62988;55.776;37.544;2023-05-17T12:51:04;3.45;;;1.50;;
74503;SDS011;62988;55.776;37.544;2023-05-17T12:53:39;8.50;;;2.20;;
74503;SDS011;62988;55.776;37.544;2023-05-17T12:56:04;7.07;;;1.92;;
74503;SDS011;62988;55.776;37.544;2023-05-17T12:58:30;5.38;;;1.65;;
74503;SDS011;62988;55.776;37.544;2023-05-17T13:00:56;6.22;;;2.28;;
74503;SDS011;62988;55.776;37.544;2023-05-17T13:03:22;5.47;;;1.75;;
74503;SDS011;62988;55.776;37.544;2023-05-17T13:05:56;9.48;;;2.13;;
74503;SDS011;62988;55.776;37.544;2023-05-17T13:08:21;10.13;;;2.13;;
74503;SDS011;62988;55.776;37.544;2023-05-17T13:10:48;10.98;;;2.03;;
74503;SDS011;62988;55.776;37.544;2023-05-17T13:13:17;9.70;;;2.30;;
74503;SDS011;62988;55.776;37.544;2023-05-17T13:15:44;9.57;;;2.28;;
74503;SDS011;62988;55.776;37.544;2023-05-17T13:18:13;4.65;;;1.80;;
74503;SDS011;62988;55.776;37.544;2023-05-17T13:20:42;9.63;;;2.05;;
74503;SDS011;62988;55.776;37.544;2023-05-17T13:23:08;16.25;;;2.33;;
74503;SDS011;62988;55.776;37.544;2023-05-17T13:25:33;6.57;;;1.50;;
74503;SDS011;62988;55.776;37.544;2023-05-17T13:28:00;3.65;;;1.63;;
74503;SDS011;62988;55.776;37.544;2023-05-17T13:30:26;4.30;;;1.65;;
74503;SDS011;62988;55.776;37.544;2023-05-17T13:32:51;8.88;;;1.80;;
74503;SDS011;62988;55.776;37.544;2023-05-17T13:35:18;7.13;;;1.65;;
74503;SDS011;62988;55.776;37.544;2023-05-17T13:37:44;6.30;;;1.80;;
74503;SDS011;62988;55.776;37.544;2023-05-17T13:40:09;4.68;;;1.60;;
74503;SDS011;62988;55.776;37.544;2023-05-17T13:42:35;4.85;;;1.70;;
74503;SDS011;62988;55.776;37.544;2023-05-17T13:45:00;6.97;;;2.10;;
74503;SDS011;62988;55.776;37.544;2023-05-17T13:47:26;8.35;;;2.13;;
74503;SDS011;62988;55.776;37.544;2023-05-17T13:49:54;9.05;;;1.92;;
74503;SDS011;62988;55.776;37.544;2023-05-17T13:52:19;8.20;;;2.08;;
74503;SDS011;62988;55.776;37.544;2023-05-17T13:54:44;6.60;;;1.90;;
74503;SDS011;62988;55.776;37.544;2023-05-17T13:57:10;12.85;;;2.10;;
74503;SDS011;62988;55.776;37.544;2023-05-17T13:59:36;9.00;;;2.60;;
74503;SDS011;62988;55.776;37.544;2023-05-17T14:02:01;10.30;;;2.00;;
74503;SDS011;62988;55.776;37.544;2023-05-17T14:04:28;20.63;;;2.28;;
74503;SDS011;62988;55.776;37.544;2023-05-17T14:06:53;8.33;;;2.30;;
74503;SDS011;62988;55.776;37.544;2023-05-17T14:09:18;4.07;;;1.90;;
74503;SDS011;62988;55.776;37.544;2023-05-17T14:11:44;5.63;;;1.50;;
74503;SDS011;62988;55.776;37.544;2023-05-17T14:14:09;5.75;;;1.73;;
74503;SDS011;62988;55.776;37.544;2023-05-17T14:16:35;5.35;;;2.03;;
74503;SDS011;62988;55.776;37.544;2023-05-17T14:19:01;5.88;;;1.60;;
74503;SDS011;62988;55.776;37.544;2023-05-17T14:21:26;10.57;;;2.05;;
74503;SDS011;62988;55.776;37.544;2023-05-17T14:23:52;11.63;;;1.97;;
74503;SDS011;62988;55.776;37.544;2023-05-17T14:26:17;12.47;;;2.10;;
74503;SDS011;62988;55.776;37.544;2023-05-17T14:28:42;9.35;;;1.60;;
74503;SDS011;62988;55.776;37.544;2023-05-17T14:31:08;16.90;;;2.30;;
74503;SDS011;62988;55.776;37.544;2023-05-17T14:33:33;8.98;;;1.73;;
74503;SDS011;62988;55.776;37.544;2023-05-17T14:35:59;5.10;;;1.92;;
74503;SDS011;62988;55.776;37.544;2023-05-17T14:38:25;13.30;;;2.53;;
74503;SDS011;62988;55.776;37.544;2023-05-17T14:40:50;6.88;;;1.85;;
74503;SDS011;62988;55.776;37.544;2023-05-17T14:43:15;8.85;;;2.45;;
74503;SDS011;62988;55.776;37.544;2023-05-17T14:45:41;5.78;;;1.63;;
74503;SDS011;62988;55.776;37.544;2023-05-17T14:48:06;10.65;;;1.88;;
74503;SDS011;62988;55.776;37.544;2023-05-17T14:50:32;7.65;;;2.13;;
74503;SDS011;62988;55.776;37.544;2023-05-17T14:52:58;10.10;;;2.10;;
74503;SDS011;62988;55.776;37.544;2023-05-17T14:55:23;12.20;;;2.25;;
74503;SDS011;62988;55.776;37.544;2023-05-17T14:57:51;7.07;;;2.70;;
74503;SDS011;62988;55.776;37.544;2023-05-17T15:00:17;11.43;;;2.22;;
74503;SDS011;62988;55.776;37.544;2023-05-17T15:02:43;9.15;;;2.35;;
74503;SDS011;62988;55.776;37.544;2023-05-17T15:05:08;4.30;;;1.63;;
74503;SDS011;62988;55.776;37.544;2023-05-17T15:07:34;6.30;;;2.10;;
74503;SDS011;62988;55.776;37.544;2023-05-17T15:09:59;9.68;;;2.00;;
74503;SDS011;62988;55.776;37.544;2023-05-17T15:12:25;5.72;;;2.05;;
74503;SDS011;62988;55.776;37.544;2023-05-17T15:14:51;7.68;;;2.63;;
74503;SDS011;62988;55.776;37.544;2023-05-17T15:17:16;6.72;;;2.20;;
74503;SDS011;62988;55.776;37.544;2023-05-17T15:19:41;9.07;;;2.70;;
74503;SDS011;62988;55.776;37.544;2023-05-17T15:22:07;8.52;;;3.35;;
74503;SDS011;62988;55.776;37.544;2023-05-17T15:24:33;8.30;;;2.35;;
74503;SDS011;62988;55.776;37.544;2023-05-17T15:26:58;10.63;;;2.72;;
74503;SDS011;62988;55.776;37.544;2023-05-17T15:29:24;9.40;;;2.70;;
74503;SDS011;62988;55.776;37.544;2023-05-17T15:31:49;8.60;;;2.92;;
74503;SDS011;62988;55.776;37.544;2023-05-17T15:34:15;6.05;;;2.55;;
74503;SDS011;62988;55.776;37.544;2023-05-17T15:36:40;8.80;;;2.85;;
74503;SDS011;62988;55.776;37.544;2023-05-17T15:39:06;9.65;;;3.22;;
74503;SDS011;62988;55.776;37.544;2023-05-17T15:41:31;10.88;;;4.10;;
74503;SDS011;62988;55.776;37.544;2023-05-17T15:43:57;9.80;;;2.60;;
74503;SDS011;62988;55.776;37.544;2023-05-17T15:46:22;19.70;;;3.10;;
74503;SDS011;62988;55.776;37.544;2023-05-17T15:48:48;14.02;;;2.92;;
74503;SDS011;62988;55.776;37.544;2023-05-17T15:51:13;16.83;;;3.83;;
74503;SDS011;62988;55.776;37.544;2023-05-17T15:53:38;9.73;;;3.90;;
74503;SDS011;62988;55.776;37.544;2023-05-17T15:56:04;6.13;;;2.40;;
74503;SDS011;62988;55.776;37.544;2023-05-17T15:58:29;7.03;;;2.30;;
74503;SDS011;62988;55.776;37.544;2023-05-17T16:01:00;11.80;;;3.10;;
74503;SDS011;62988;55.776;37.544;2023-05-17T16:03:26;5.65;;;2.22;;
74503;SDS011;62988;55.776;37.544;2023-05-17T16:05:51;7.97;;;2.93;;
74503;SDS011;62988;55.776;37.544;2023-05-17T16:08:17;15.73;;;3.05;;
74503;SDS011;62988;55.776;37.544;2023-05-17T16:10:44;5.78;;;2.58;;
74503;SDS011;62988;55.776;37.544;2023-05-17T16:13:09;11.35;;;2.08;;
74503;SDS011;62988;55.776;37.544;2023-05-17T16:15:35;3.80;;;2.13;;
74503;SDS011;62988;55.776;37.544;2023-05-17T16:18:00;6.60;;;2.00;;
74503;SDS011;62988;55.776;37.544;2023-05-17T16:20:25;8.77;;;2.07;;
74503;SDS011;62988;55.776;37.544;2023-05-17T16:22:52;7.03;;;2.35;;
74503;SDS011;62988;55.776;37.544;2023-05-17T16:25:18;10.27;;;2.80;;
74503;SDS011;62988;55.776;37.544;2023-05-17T16:27:44;16.52;;;3.20;;
74503;SDS011;62988;55.776;37.544;2023-05-17T16:30:09;10.88;;;3.70;;
74503;SDS011;62988;55.776;37.544;2023-05-17T16:32:35;10.13;;;2.25;;
74503;SDS011;62988;55.776;37.544;2023-05-17T16:35:00;11.68;;;2.17;;
74503;SDS011;62988;55.776;37.544;2023-05-17T16:37:26;10.48;;;2.40;;
74503;SDS011;62988;55.776;37.544;2023-05-17T16:39:51;16.55;;;2.45;;
74503;SDS011;62988;55.776;37.544;2023-05-17T16:42:17;9.15;;;2.58;;
74503;SDS011;62988;55.776;37.544;2023-05-17T16:44:42;8.82;;;2.55;;
74503;SDS011;62988;55.776;37.544;2023-05-17T16:47:08;10.63;;;2.38;;
74503;SDS011;62988;55.776;37.544;2023-05-17T16:49:33;11.85;;;2.70;;
74503;SDS011;62988;55.776;37.544;2023-05-17T16:52:00;11.95;;;2.75;;
74503;SDS011;62988;55.776;37.544;2023-05-17T16:54:25;7.23;;;2.43;;
74503;SDS011;62988;55.776;37.544;2023-05-17T16:56:52;12.82;;;3.05;;
74503;SDS011;62988;55.776;37.544;2023-05-17T16:59:17;12.32;;;2.88;;
74503;SDS011;62988;55.776;37.544;2023-05-17T17:01:43;13.65;;;4.60;;
74503;SDS011;62988;55.776;37.544;2023-05-17T17:04:08;14.63;;;2.97;;
74503;SDS011;62988;55.776;37.544;2023-05-17T17:06:34;9.93;;;2.60;;
74503;SDS011;62988;55.776;37.544;2023-05-17T17:08:59;12.23;;;2.80;;
74503;SDS011;62988;55.776;37.544;2023-05-17T17:11:25;12.18;;;2.65;;
74503;SDS011;62988;55.776;37.544;2023-05-17T17:13:51;17.15;;;3.55;;
74503;SDS011;62988;55.776;37.544;2023-05-17T17:16:16;17.23;;;2.75;;
74503;SDS011;62988;55.776;37.544;2023-05-17T17:18:42;16.70;;;3.95;;
74503;SDS011;62988;55.776;37.544;2023-05-17T17:21:07;10.65;;;2.90;;
74503;SDS011;62988;55.776;37.544;2023-05-17T17:23:32;15.70;;;3.17;;
74503;SDS011;62988;55.776;37.544;2023-05-17T17:25:58;11.33;;;2.70;;
74503;SDS011;62988;55.776;37.544;2023-05-17T17:28:23;9.82;;;2.80;;
74503;SDS011;62988;55.776;37.544;2023-05-17T17:30:48;11.83;;;2.20;;
74503;SDS011;62988;55.776;37.544;2023-05-17T17:33:14;11.40;;;2.75;;
74503;SDS011;62988;55.776;37.544;2023-05-17T17:35:40;18.02;;;4.00;;
74503;SDS011;62988;55.776;37.544;2023-05-17T17:38:05;17.98;;;3.50;;
74503;SDS011;62988;55.776;37.544;2023-05-17T17:40:30;27.73;;;3.70;;
74503;SDS011;62988;55.776;37.544;2023-05-17T17:42:56;17.30;;;4.03;;
74503;SDS011;62988;55.776;37.544;2023-05-17T17:45:21;19.83;;;3.30;;
74503;SDS011;62988;55.776;37.544;2023-05-17T17:47:47;19.88;;;3.97;;
74503;SDS011;62988;55.776;37.544;2023-05-17T17:50:12;17.98;;;3.53;;
74503;SDS011;62988;55.776;37.544;2023-05-17T17:52:37;17.43;;;3.60;;
74503;SDS011;62988;55.776;37.544;2023-05-17T17:55:03;20.45;;;3.80;;
74503;SDS011;62988;55.776;37.544;2023-05-17T17:57:28;13.63;;;4.13;;
74503;SDS011;62988;55.776;37.544;2023-05-17T17:59:56;14.50;;;4.05;;
74503;SDS011;62988;55.776;37.544;2023-05-17T18:02:22;18.88;;;4.38;;
74503;SDS011;62988;55.776;37.544;2023-05-17T18:04:47;13.68;;;4.03;;
74503;SDS011;62988;55.776;37.544;2023-05-17T18:07:12;19.63;;;3.80;;
74503;SDS011;62988;55.776;37.544;2023-05-17T18:09:41;17.65;;;4.07;;
74503;SDS011;62988;55.776;37.544;2023-05-17T18:12:06;25.02;;;3.65;;
74503;SDS011;62988;55.776;37.544;2023-05-17T18:14:32;9.75;;;3.22;;
74503;SDS011;62988;55.776;37.544;2023-05-17T18:16:57;13.30;;;3.65;;
74503;SDS011;62988;55.776;37.544;2023-05-17T18:19:23;14.77;;;3.43;;
74503;SDS011;62988;55.776;37.544;2023-05-17T18:21:48;12.07;;;3.55;;
74503;SDS011;62988;55.776;37.544;2023-05-17T18:24:14;19.65;;;3.65;;
74503;SDS011;62988;55.776;37.544;2023-05-17T18:26:40;13.20;;;3.38;;
74503;SDS011;62988;55.776;37.544;2023-05-17T18:29:05;13.03;;;3.97;;
74503;SDS011;62988;55.776;37.544;2023-05-17T18:31:30;9.83;;;2.83;;
74503;SDS011;62988;55.776;37.544;2023-05-17T18:33:56;6.35;;;2.72;;
74503;SDS011;62988;55.776;37.544;2023-05-17T18:36:21;10.23;;;3.08;;
74503;SDS011;62988;55.776;37.544;2023-05-17T18:38:46;11.17;;;2.60;;
74503;SDS011;62988;55.776;37.544;2023-05-17T18:41:12;8.57;;;2.92;;
74503;SDS011;62988;55.776;37.544;2023-05-17T18:43:37;14.77;;;3.73;;
74503;SDS011;62988;55.776;37.544;2023-05-17T18:46:03;14.67;;;3.30;;
74503;SDS011;62988;55.776;37.544;2023-05-17T18:48:28;9.40;;;2.77;;
74503;SDS011;62988;55.776;37.544;2023-05-17T18:50:53;12.17;;;3.10;;
74503;SDS011;62988;55.776;37.544;2023-05-17T18:53:19;10.20;;;3.40;;
74503;SDS011;62988;55.776;37.544;2023-05-17T18:55:44;11.15;;;3.35;;
74503;SDS011;62988;55.776;37.544;2023-05-17T18:58:09;17.57;;;3.20;;
74503;SDS011;62988;55.776;37.544;2023-05-17T19:00:35;7.73;;;2.80;;
74503;SDS011;62988;55.776;37.544;2023-05-17T19:03:00;14.57;;;3.50;;
74503;SDS011;62988;55.776;37.544;2023-05-17T19:05:26;15.27;;;4.27;;
74503;SDS011;62988;55.776;37.544;2023-05-17T19:07:51;14.23;;;3.80;;
74503;SDS011;62988;55.776;37.544;2023-05-17T19:10:16;22.53;;;3.40;;
74503;SDS011;62988;55.776;37.544;2023-05-17T19:12:42;14.63;;;4.47;;
74503;SDS011;62988;55.776;37.544;2023-05-17T19:15:08;15.38;;;4.78;;
74503;SDS011;62988;55.776;37.544;2023-05-17T19:17:34;13.85;;;3.30;;
74503;SDS011;62988;55.776;37.544;2023-05-17T19:19:59;18.40;;;4.38;;
74503;SDS011;62988;55.776;37.544;2023-05-17T19:22:25;19.70;;;3.50;;
74503;SDS011;62988;55.776;37.544;2023-05-17T19:24:50;14.40;;;4.32;;
74503;SDS011;62988;55.776;37.544;2023-05-17T19:27:16;20.67;;;3.87;;
74503;SDS011;62988;55.776;37.544;2023-05-17T19:29:44;14.23;;;3.88;;
74503;SDS011;62988;55.776;37.544;2023-05-17T19:32:09;20.23;;;3.90;;
74503;SDS011;62988;55.776;37.544;2023-05-17T19:34:34;6.23;;;3.47;;
74503;SDS011;62988;55.776;37.544;2023-05-17T19:37:00;20.88;;;3.78;;
74503;SDS011;62988;55.776;37.544;2023-05-17T19:39:25;18.10;;;4.95;;
74503;SDS011;62988;55.776;37.544;2023-05-17T19:41:51;15.93;;;3.97;;
74503;SDS011;62988;55.776;37.544;2023-05-17T19:44:16;18.80;;;5.50;;
74503;SDS011;62988;55.776;37.544;2023-05-17T19:46:41;20.50;;;4.43;;
74503;SDS011;62988;55.776;37.544;2023-05-17T19:49:07;24.35;;;4.32;;
74503;SDS011;62988;55.776;37.544;2023-05-17T19:51:32;19.07;;;4.20;;
74503;SDS011;62988;55.776;37.544;2023-05-17T19:53:57;20.17;;;4.30;;
74503;SDS011;62988;55.776;37.544;2023-05-17T19:56:23;27.00;;;5.07;;
74503;SDS011;62988;55.776;37.544;2023-05-17T19:58:49;22.52;;;4.65;;